»·PEaware :: WAT462 KSFO-KSEA

WAT462 :: KSFO-KSEA

FLIGHT INFORMATION

Flight Status: Arrived
Operator:
Walker Air Transport
More flights by this operator :: More flights under this callsign
Pilot: Andrew C. (32327)
Aircraft: Unknown
(E35L)
More flights by this aircraft type
Origin: KSFO San Francisco Intl
United States
Destination: KSEA Seattle-Tacoma Intl
United States
More flights between these airports :: More routes between these airports
Route: TRUKN2 DEDHD RBL LMT HAWKZ7
File this flight plan on PilotEdge
Remarks: RMK / SIMBRIEF
Altitude:
(Current/Filed)
38,000ft
Speed:
(Current/Filed)
420kts
Departed: 05-Feb-21 06:28 PM
Arrived: 05-Feb-21 08:22 PM
Distance/Time
Traveled:
590nm/1:54
Distance/Time
To Go:
Arrived

Flight Plot

Page will automatically refresh every two minutes.

Flight plan parsing failed; only flown route is shown


Map Options




Map Legend


Flown Route
Filed Route
Departure Airport
Arrival Airport
Navaid (VOR, NDB)
Fix

Horizontal Profiles

Position Reports

Time Latitude Longitude Heading Altitude Ground
Speed
05-Feb-21 17:51 37.629104 -122.388658 207 12ft 0kts
05-Feb-21 17:52 37.629104 -122.388658 207 12ft 0kts
05-Feb-21 17:53 37.629104 -122.388658 207 12ft 0kts
05-Feb-21 17:54 37.629104 -122.388658 207 12ft 0kts
05-Feb-21 17:55 37.629104 -122.388658 207 12ft 0kts
05-Feb-21 17:56 37.629104 -122.388658 207 12ft 0kts
05-Feb-21 17:57 37.629104 -122.388658 207 12ft 0kts
05-Feb-21 17:58 37.629104 -122.388658 207 12ft 0kts
05-Feb-21 17:59 37.629104 -122.388658 207 12ft 0kts
05-Feb-21 18:00 37.629104 -122.388658 207 12ft 0kts
05-Feb-21 18:01 37.629104 -122.388658 207 12ft 0kts
05-Feb-21 18:02 37.629104 -122.388658 207 12ft 0kts
05-Feb-21 18:03 37.629104 -122.388658 207 12ft 0kts
05-Feb-21 18:04 37.629104 -122.388658 207 12ft 0kts
05-Feb-21 18:05 37.629104 -122.388658 207 12ft 0kts
05-Feb-21 18:06 37.629104 -122.388658 207 12ft 0kts
05-Feb-21 18:07 37.629104 -122.388658 207 12ft 0kts
05-Feb-21 18:08 37.629104 -122.388658 207 12ft 0kts
05-Feb-21 18:09 37.629104 -122.388658 207 12ft 0kts
05-Feb-21 18:10 37.629104 -122.388658 207 12ft 0kts
05-Feb-21 18:11 37.629104 -122.388658 207 12ft 0kts
05-Feb-21 18:12 37.629104 -122.388658 207 12ft 0kts
05-Feb-21 18:13 37.629104 -122.388658 207 12ft 0kts
05-Feb-21 18:14 37.629104 -122.388659 207 12ft 0kts
05-Feb-21 18:15 37.629104 -122.388659 207 12ft 0kts
05-Feb-21 18:17 37.629104 -122.388659 207 12ft 0kts
05-Feb-21 18:18 37.629104 -122.388659 207 12ft 0kts
05-Feb-21 18:19 37.629104 -122.388659 207 12ft 0kts
05-Feb-21 18:20 37.629102 -122.388660 207 12ft 0kts
05-Feb-21 18:21 37.626701 -122.384803 117 12ft 22kts
05-Feb-21 18:22 37.623543 -122.385175 207 13ft 30kts
05-Feb-21 18:23 37.619581 -122.380091 124 15ft 21kts
05-Feb-21 18:24 37.613307 -122.380894 207 15ft 29kts
05-Feb-21 18:25 37.609242 -122.383586 191 15ft 0kts
05-Feb-21 18:26 37.609242 -122.383586 191 15ft 0kts
05-Feb-21 18:27 37.609444 -122.381909 27 15ft 29kts
05-Feb-21 18:28 37.642295 -122.350961 55 1829ft 198kts
05-Feb-21 18:29 37.680738 -122.283430 51 4459ft 243kts
05-Feb-21 18:30 37.721196 -122.216866 20 6930ft 241kts
05-Feb-21 18:31 37.791946 -122.202528 6 9509ft 264kts
05-Feb-21 18:32 37.866945 -122.190097 3 13792ft 292kts
05-Feb-21 18:33 37.950177 -122.176472 3 18559ft 315kts
05-Feb-21 18:33 38.029596 -122.163452 3 19204ft 368kts
05-Feb-21 18:34 38.129008 -122.147014 3 19203ft 357kts
05-Feb-21 18:36 38.243949 -122.128000 3 19203ft 357kts
05-Feb-21 18:43 38.978563 -122.157142 353 37115ft 417kts
05-Feb-21 18:44 39.095726 -122.165292 353 38191ft 415kts
05-Feb-21 18:45 39.204417 -122.172918 353 38216ft 395kts
05-Feb-21 18:46 39.313135 -122.180533 353 38211ft 392kts
05-Feb-21 18:47 39.421934 -122.188191 353 38210ft 391kts
05-Feb-21 18:48 39.533867 -122.196101 353 38218ft 423kts
05-Feb-21 18:49 39.649995 -122.204301 353 38201ft 418kts
05-Feb-21 18:50 39.765749 -122.212529 353 38197ft 418kts
05-Feb-21 18:51 39.881577 -122.220788 353 38198ft 419kts
05-Feb-21 18:52 39.997103 -122.229047 353 38195ft 417kts
05-Feb-21 18:53 40.113056 -122.232293 5 38209ft 423kts
05-Feb-21 18:54 40.228641 -122.205150 6 38199ft 424kts
05-Feb-21 18:55 40.344369 -122.177227 6 38192ft 424kts
05-Feb-21 18:56 40.460675 -122.149057 6 38192ft 423kts
05-Feb-21 18:57 40.576755 -122.120848 6 38196ft 424kts
05-Feb-21 18:58 40.692849 -122.092534 5 38205ft 423kts
05-Feb-21 18:59 40.808725 -122.064159 5 38189ft 422kts
05-Feb-21 19:00 40.924212 -122.035801 5 38151ft 422kts
05-Feb-21 19:01 41.039483 -122.007387 5 38113ft 421kts
05-Feb-21 19:02 41.153659 -121.979136 4 38086ft 416kts
05-Feb-21 19:03 41.267003 -121.951002 4 38048ft 414kts
05-Feb-21 19:04 41.380145 -121.922818 4 38161ft 415kts
05-Feb-21 19:05 41.493176 -121.894559 3 38293ft 415kts
05-Feb-21 19:06 41.606844 -121.866026 3 38292ft 414kts
05-Feb-21 19:07 41.719834 -121.837588 3 38291ft 415kts
05-Feb-21 19:08 41.833184 -121.808945 3 38290ft 415kts
05-Feb-21 19:09 41.945997 -121.780363 4 38287ft 410kts
05-Feb-21 19:10 42.057744 -121.751886 4 38287ft 410kts
05-Feb-21 19:11 42.169710 -121.732384 347 38321ft 397kts
05-Feb-21 19:12 42.278655 -121.755983 346 38297ft 396kts
05-Feb-21 19:13 42.387033 -121.780626 346 38296ft 395kts
05-Feb-21 19:14 42.494922 -121.805252 346 38295ft 394kts
05-Feb-21 19:15 42.602752 -121.829949 345 38295ft 392kts
05-Feb-21 19:16 42.709950 -121.854596 345 38306ft 391kts
05-Feb-21 19:17 42.817270 -121.879349 345 38307ft 389kts
05-Feb-21 19:18 42.923527 -121.903951 345 38305ft 388kts
05-Feb-21 19:19 43.029538 -121.928570 345 38314ft 386kts
05-Feb-21 19:20 43.135239 -121.953221 345 38334ft 385kts
05-Feb-21 19:21 43.240308 -121.977800 345 38339ft 384kts
05-Feb-21 19:22 43.345463 -122.002494 345 38341ft 385kts
05-Feb-21 19:23 43.451472 -122.027458 345 38348ft 385kts
05-Feb-21 19:24 43.556869 -122.052384 345 38353ft 384kts
05-Feb-21 19:25 43.661594 -122.077237 345 38358ft 383kts
05-Feb-21 19:26 43.766189 -122.102143 345 38363ft 382kts
05-Feb-21 19:27 43.853270 -122.122949 345 38371ft 382kts
05-Feb-21 19:28 43.958130 -122.148082 345 38378ft 381kts
05-Feb-21 19:29 44.062180 -122.173112 345 38382ft 381kts
05-Feb-21 19:30 44.164052 -122.197703 345 38397ft 381kts
05-Feb-21 19:31 44.268555 -122.223019 345 38395ft 381kts
05-Feb-21 19:32 44.372930 -122.248402 345 38394ft 382kts
05-Feb-21 19:33 44.477214 -122.273843 345 38391ft 381kts
05-Feb-21 19:34 44.581882 -122.299477 345 38389ft 381kts
05-Feb-21 19:35 44.686214 -122.325122 345 38387ft 381kts
05-Feb-21 19:36 44.790522 -122.350875 346 36649ft 380kts
05-Feb-21 19:37 44.894434 -122.376601 346 34612ft 384kts
05-Feb-21 19:38 44.999354 -122.402635 346 32546ft 372kts
05-Feb-21 19:39 45.098167 -122.427311 346 30451ft 366kts
05-Feb-21 19:40 45.199044 -122.452569 346 28535ft 369kts
05-Feb-21 19:41 45.300422 -122.478021 346 27555ft 371kts
05-Feb-21 19:42 45.402087 -122.503662 346 26554ft 372kts
05-Feb-21 19:43 45.504084 -122.529466 346 25540ft 372kts
05-Feb-21 19:44 45.600096 -122.553861 346 24482ft 350kts
05-Feb-21 19:45 45.695981 -122.578292 346 24367ft 351kts
05-Feb-21 19:46 45.791980 -122.602424 346 24365ft 350kts
05-Feb-21 19:47 45.888078 -122.626200 346 23417ft 353kts
05-Feb-21 19:48 45.980108 -122.648993 346 22375ft 311kts
05-Feb-21 19:49 46.065669 -122.670312 345 22367ft 311kts
05-Feb-21 19:50 46.151271 -122.688697 347 22380ft 311kts
05-Feb-21 19:51 46.236998 -122.705683 347 22373ft 310kts
05-Feb-21 19:52 46.322504 -122.721818 354 22357ft 315kts
05-Feb-21 19:53 46.409678 -122.725336 352 22369ft 313kts
05-Feb-21 19:54 46.496688 -122.728524 352 22368ft 313kts
05-Feb-21 19:55 46.580884 -122.731552 351 20824ft 292kts
05-Feb-21 19:56 46.661652 -122.734480 351 18918ft 288kts
05-Feb-21 19:57 46.740852 -122.737369 351 17006ft 283kts
05-Feb-21 19:58 46.815609 -122.702015 28 15314ft 314kts
05-Feb-21 19:59 46.881752 -122.625768 27 13772ft 285kts
05-Feb-21 20:00 46.945735 -122.559310 8 12254ft 269kts
05-Feb-21 20:01 47.017510 -122.527355 9 11162ft 272kts
05-Feb-21 20:02 47.090435 -122.497975 0 10152ft 269kts
05-Feb-21 20:03 47.165049 -122.484694 2 10031ft 271kts
05-Feb-21 20:04 47.239341 -122.472570 1 10019ft 253kts
05-Feb-21 20:06 47.308099 -122.462144 1 9386ft 251kts
05-Feb-21 20:07 47.378022 -122.455272 357 8394ft 251kts
05-Feb-21 20:08 47.444526 -122.455323 357 7365ft 228kts
05-Feb-21 20:09 47.507950 -122.453307 358 6372ft 229kts
05-Feb-21 20:10 47.571410 -122.451231 359 6001ft 229kts
05-Feb-21 20:11 47.635067 -122.449607 359 6000ft 229kts
05-Feb-21 20:12 47.698960 -122.448183 359 6000ft 230kts
05-Feb-21 20:13 47.762489 -122.442259 31 5994ft 231kts
05-Feb-21 20:14 47.770959 -122.353499 101 5996ft 228kts
05-Feb-21 20:15 47.720934 -122.305204 178 5519ft 222kts
05-Feb-21 20:16 47.661463 -122.306002 181 4380ft 204kts
05-Feb-21 20:17 47.608602 -122.306476 182 3294ft 166kts
05-Feb-21 20:18 47.563469 -122.306873 181 2406ft 155kts
05-Feb-21 20:19 47.524661 -122.307194 181 1589ft 130kts
05-Feb-21 20:20 47.491569 -122.307271 182 1059ft 117kts
05-Feb-21 20:21 47.458968 -122.307764 182 441ft 105kts
05-Feb-21 20:21 47.445995 -122.307544 139 393ft 13kts
05-Feb-21 20:22 47.447132 -122.306274 358 397ft 0kts

Navigation Log

Ident Type
Flight plan parsing failed, navigation log unavailable